createdAt,value
2022-12-12T00:06:12.216Z,4.30
2022-12-12T00:11:10.956Z,4.20
2022-12-12T00:16:10.248Z,4.30
2022-12-12T00:21:14.123Z,4.30
2022-12-12T00:32:42.952Z,4.40
2022-12-12T00:44:31.326Z,4.40
2022-12-12T00:49:29.584Z,4.80
2022-12-12T00:54:27.759Z,4.40
2022-12-12T00:59:25.929Z,4.40
2022-12-12T01:11:15.824Z,4.30
2022-12-12T01:16:14.481Z,4.30
2022-12-12T01:21:16.080Z,4.30
2022-12-12T01:26:17.504Z,4.40
2022-12-12T01:31:46.625Z,4.50
2022-12-12T01:36:44.864Z,4.30
2022-12-12T01:41:45.288Z,4.30
2022-12-12T01:46:45.016Z,4.40
2022-12-12T01:51:44.170Z,4.40
2022-12-12T01:56:46.198Z,4.40
2022-12-12T02:01:45.040Z,4.40
2022-12-12T02:06:45.194Z,4.40
2022-12-12T02:11:47.059Z,4.40
2022-12-12T02:17:09.289Z,4.40
2022-12-12T02:22:18.966Z,4.40
2022-12-12T02:33:09.937Z,4.40
2022-12-12T02:38:19.460Z,4.40
2022-12-12T02:43:26.326Z,4.30
2022-12-12T02:48:31.625Z,4.30
2022-12-12T02:53:29.980Z,4.30
2022-12-12T02:58:28.649Z,4.30
2022-12-12T03:03:54.490Z,4.30
2022-12-12T03:09:03.717Z,4.30
2022-12-12T03:14:10.997Z,4.30
2022-12-12T03:19:16.642Z,4.30
2022-12-12T03:24:23.405Z,4.30
2022-12-12T03:29:26.752Z,4.30
2022-12-12T03:34:30.162Z,4.20
2022-12-12T03:39:32.849Z,4.30
2022-12-12T03:51:30.278Z,4.20
2022-12-12T03:56:38.958Z,4.00
2022-12-12T04:01:45.089Z,3.90
2022-12-12T04:06:50.506Z,3.90
2022-12-12T04:12:17.261Z,3.90
2022-12-12T04:17:18.989Z,3.80
2022-12-12T04:22:43.199Z,3.90
2022-12-12T04:27:45.506Z,3.80
2022-12-12T04:33:49.719Z,3.80
2022-12-12T04:38:50.912Z,3.80
2022-12-12T04:43:51.464Z,3.80
2022-12-12T04:48:54.098Z,3.80
2022-12-12T04:53:58.757Z,3.80
2022-12-12T04:58:58.308Z,3.80
2022-12-12T05:04:01.985Z,4.00
2022-12-12T05:09:03.599Z,3.70
2022-12-12T05:14:01.833Z,3.70
2022-12-12T05:19:00.271Z,4.00
2022-12-12T05:23:58.402Z,3.70
2022-12-12T05:29:02.362Z,3.80
2022-12-12T05:40:59.303Z,3.50
2022-12-12T05:45:59.078Z,3.40
2022-12-12T05:50:57.311Z,3.40
2022-12-12T06:09:08.616Z,3.30
2022-12-12T06:14:06.709Z,3.30
2022-12-12T06:19:05.390Z,3.30
2022-12-12T06:24:05.856Z,3.20
2022-12-12T06:29:05.808Z,3.10
2022-12-12T06:34:03.926Z,3.10
2022-12-12T06:39:02.433Z,3.10
2022-12-12T06:44:00.820Z,3.10
2022-12-12T06:49:00.517Z,3.00
2022-12-12T06:53:58.871Z,3.10
2022-12-12T06:58:59.136Z,3.00
2022-12-12T07:03:57.333Z,2.90
2022-12-12T07:09:00.306Z,2.90
2022-12-12T07:14:00.005Z,2.90
2022-12-12T07:18:58.207Z,3.10
2022-12-12T07:23:58.859Z,2.90
2022-12-12T07:28:56.967Z,2.80
2022-12-12T07:33:55.444Z,2.80
2022-12-12T07:38:53.533Z,2.80
2022-12-12T07:43:53.339Z,2.80
2022-12-12T07:48:52.131Z,2.70
2022-12-12T08:00:16.319Z,2.60
2022-12-12T08:05:14.741Z,2.70
2022-12-12T08:10:13.118Z,2.70
2022-12-12T08:15:16.786Z,2.60
2022-12-12T08:20:41.302Z,2.50
2022-12-12T08:26:47.345Z,2.50
2022-12-12T08:31:46.892Z,2.50
2022-12-12T08:43:45.434Z,2.50
2022-12-12T08:48:45.150Z,2.40
2022-12-12T08:53:45.827Z,2.40
2022-12-12T08:58:44.202Z,2.50
2022-12-12T09:03:43.812Z,2.50
2022-12-12T09:09:31.978Z,2.50
2022-12-12T09:14:30.123Z,2.50
2022-12-12T09:19:29.619Z,2.60
2022-12-12T09:24:27.930Z,2.60
2022-12-12T09:29:26.082Z,2.60
2022-12-12T09:34:24.253Z,2.60
2022-12-12T09:39:23.705Z,2.70
2022-12-12T09:44:22.710Z,2.70
2022-12-12T09:49:27.170Z,2.70
2022-12-12T09:54:51.997Z,2.80
2022-12-12T10:06:45.084Z,2.90
2022-12-12T10:12:35.185Z,2.90
2022-12-12T10:18:04.183Z,3.00
2022-12-12T10:23:38.847Z,3.10
2022-12-12T10:28:37.146Z,3.20
2022-12-12T10:40:45.506Z,3.20
2022-12-12T10:52:39.107Z,3.30
2022-12-12T10:57:38.613Z,3.30
2022-12-12T11:02:39.048Z,3.30
2022-12-12T11:14:03.758Z,3.40
2022-12-12T11:19:07.236Z,3.40
2022-12-12T11:24:35.196Z,3.40
2022-12-12T11:43:58.151Z,3.50
2022-12-12T11:49:02.282Z,3.60
2022-12-12T11:54:01.052Z,3.80
2022-12-12T11:59:26.738Z,3.60
2022-12-12T12:04:39.102Z,3.60
2022-12-12T12:16:37.227Z,3.80
2022-12-12T12:21:44.547Z,3.80
2022-12-12T12:27:07.506Z,3.90
2022-12-12T12:32:41.466Z,3.90
2022-12-12T12:38:41.013Z,4.00
2022-12-12T12:43:49.445Z,4.10
2022-12-12T12:48:53.396Z,4.30
2022-12-12T12:53:56.623Z,4.00
2022-12-12T12:58:57.712Z,4.10
2022-12-12T13:04:03.018Z,4.10
2022-12-12T13:09:53.163Z,4.20
2022-12-12T13:14:56.896Z,4.20
2022-12-12T13:19:58.729Z,4.20
2022-12-12T13:25:04.265Z,4.30
2022-12-12T13:30:06.084Z,4.30
2022-12-12T13:35:09.752Z,4.30
2022-12-12T13:40:09.323Z,4.30
2022-12-12T13:45:36.657Z,4.30
2022-12-12T13:51:11.150Z,4.40
2022-12-12T13:56:35.912Z,4.40
2022-12-12T14:01:40.197Z,4.50
2022-12-12T14:06:38.572Z,4.60
2022-12-12T14:11:38.630Z,4.60
2022-12-12T14:16:37.773Z,4.70
2022-12-12T14:21:42.313Z,4.60
2022-12-12T14:26:52.045Z,4.60
2022-12-12T14:46:10.397Z,4.40
2022-12-12T14:58:04.307Z,4.30
2022-12-12T15:03:02.612Z,4.20
2022-12-12T15:08:00.867Z,4.20
2022-12-12T15:12:59.085Z,4.30
2022-12-12T15:18:54.130Z,4.10
2022-12-12T15:23:53.683Z,4.00
2022-12-12T15:36:01.873Z,3.90
2022-12-12T15:41:11.281Z,3.90
2022-12-12T15:53:18.102Z,3.80
2022-12-12T16:05:09.103Z,3.70
2022-12-12T16:10:23.001Z,3.60
2022-12-12T16:15:28.994Z,3.60
2022-12-12T16:20:30.612Z,3.50
2022-12-12T16:25:32.411Z,3.50
2022-12-12T16:30:30.480Z,3.40
2022-12-12T16:35:29.892Z,3.40
2022-12-12T16:40:54.595Z,3.30
2022-12-12T16:45:54.253Z,3.50
2022-12-12T16:50:58.319Z,3.20
2022-12-12T16:55:57.135Z,3.50
2022-12-12T17:07:53.643Z,3.10
2022-12-12T17:13:29.397Z,3.10
2022-12-12T17:19:37.181Z,3.10
2022-12-12T17:25:02.316Z,3.00
2022-12-12T17:30:00.439Z,3.20
2022-12-12T17:34:58.593Z,2.80
2022-12-12T17:40:37.603Z,2.60
2022-12-12T17:45:37.129Z,2.60
2022-12-12T17:50:41.308Z,2.70
2022-12-12T18:02:36.755Z,2.70
2022-12-12T18:07:34.985Z,2.50
2022-12-12T18:12:33.259Z,2.40
2022-12-12T18:17:31.414Z,2.30
2022-12-12T18:22:33.038Z,2.30
2022-12-12T18:27:31.216Z,2.20
2022-12-12T18:32:29.807Z,2.30
2022-12-12T18:37:28.149Z,2.30
2022-12-12T18:42:27.666Z,2.30
2022-12-12T18:47:25.860Z,2.60
2022-12-12T18:52:24.189Z,2.30
2022-12-12T18:57:22.409Z,2.30
2022-12-12T19:02:21.937Z,2.30
2022-12-12T19:07:20.131Z,2.20
2022-12-12T19:12:18.633Z,2.20
2022-12-12T19:17:20.731Z,2.40
2022-12-12T19:22:44.373Z,2.20
2022-12-12T19:27:43.615Z,2.40
2022-12-12T19:32:41.785Z,2.10
2022-12-12T19:44:29.737Z,1.90
2022-12-12T19:49:27.933Z,1.90
2022-12-12T19:54:26.427Z,1.90
2022-12-12T19:59:24.560Z,1.90
2022-12-12T20:04:25.614Z,1.80
2022-12-12T20:09:26.089Z,1.90
2022-12-12T20:14:26.279Z,1.90
2022-12-12T20:19:27.856Z,1.80
2022-12-12T20:24:26.165Z,2.00
2022-12-12T20:29:24.768Z,1.90
2022-12-12T20:34:24.708Z,1.60
2022-12-12T20:45:55.171Z,1.60
2022-12-12T20:50:54.712Z,1.60
2022-12-12T20:55:52.856Z,1.40
2022-12-12T21:07:40.875Z,1.30
2022-12-12T21:19:34.582Z,1.50
2022-12-12T21:31:25.426Z,1.60
2022-12-12T21:37:13.806Z,1.50
2022-12-12T21:42:11.997Z,1.40
2022-12-12T21:47:11.478Z,1.60
2022-12-12T21:59:12.232Z,1.10
2022-12-12T22:04:14.862Z,1.10
2022-12-12T22:15:37.802Z,1.00
2022-12-12T22:27:07.506Z,1.10
2022-12-12T22:32:06.040Z,1.10
2022-12-12T22:37:54.789Z,1.10
2022-12-12T22:42:54.271Z,1.10
2022-12-12T22:54:42.687Z,0.80
2022-12-12T23:00:34.124Z,0.80
2022-12-12T23:06:30.647Z,0.80
2022-12-12T23:18:00.218Z,0.70
2022-12-12T23:22:58.383Z,0.70
2022-12-12T23:27:56.488Z,0.70
2022-12-12T23:32:54.933Z,0.70
2022-12-12T23:37:54.513Z,0.60
2022-12-12T23:42:52.624Z,0.50
2022-12-12T23:47:50.801Z,0.50
2022-12-12T23:52:48.981Z,0.40
2022-12-12T23:58:13.633Z,0.60
